Time,TemperatureF,DewpointF,PressureIn,WindDirection,WindDirectionDegrees,WindSpeedMPH,WindSpeedGustMPH,Humidity,HourlyPrecipIn,Conditions,Clouds,dailyrainin,SoftwareType,DateUTC
2014-12-29 00:00:00,28.6,26.0,30.59,WSW,240,3.0,7.0,90,0.00,SCT,,0.00,WeatherDisplay:10.37,2014-12-29 00:00:00,
2014-12-29 00:10:00,28.6,26.0,30.59,SW,232,5.0,5.0,90,0.00,SCT,,0.00,WeatherDisplay:10.37,2014-12-29 00:10:00,
2014-12-29 00:18:00,28.7,26.1,30.59,WSW,249,5.0,7.0,90,0.00,SCT,,0.00,WeatherDisplay:10.37,2014-12-29 00:18:00,
2014-12-29 00:30:00,28.8,26.2,30.59,WSW,252,3.0,7.0,90,0.00,SCT,,0.00,WeatherDisplay:10.37,2014-12-29 00:30:00,
2014-12-29 00:40:00,29.1,26.8,30.59,SW,232,5.0,7.0,91,0.00,SCT,,0.00,WeatherDisplay:10.37,2014-12-29 00:40:00,
2014-12-29 00:50:00,29.3,27.0,30.59,SW,218,5.0,7.0,91,0.00,SCT,,0.00,WeatherDisplay:10.37,2014-12-29 00:50:00,
2014-12-29 01:00:00,29.1,26.8,30.59,SW,236,5.0,6.0,91,0.00,SCT,,0.00,WeatherDisplay:10.37,2014-12-29 01:00:00,
2014-12-29 01:10:00,29.3,27.0,30.59,SW,228,2.0,6.0,91,0.00,SCT,,0.00,WeatherDisplay:10.37,2014-12-29 01:10:00,
2014-12-29 01:20:00,29.3,27.0,30.59,SW,231,5.0,7.0,91,0.00,SCT,,0.00,WeatherDisplay:10.37,2014-12-29 01:20:00,
2014-12-29 01:30:00,29.3,27.0,30.59,SW,233,3.0,6.0,91,0.00,SCT,,0.00,WeatherDisplay:10.37,2014-12-29 01:30:00,
2014-12-29 01:40:00,29.3,27.0,30.59,SW,233,5.0,6.0,91,0.00,SCT,,0.00,WeatherDisplay:10.37,2014-12-29 01:40:00,
2014-12-29 01:50:00,29.3,27.0,30.59,WSW,239,5.0,5.0,91,0.00,SCT,,0.00,WeatherDisplay:10.37,2014-12-29 01:50:00,
2014-12-29 02:00:00,29.3,27.0,30.59,SW,228,3.0,7.0,91,0.00,SCT,,0.00,WeatherDisplay:10.37,2014-12-29 02:00:00,
2014-12-29 02:10:00,29.1,26.8,30.59,WSW,237,3.0,6.0,91,0.00,SCT,,0.00,WeatherDisplay:10.37,2014-12-29 02:10:00,
2014-12-29 02:20:00,28.9,26.6,30.62,WSW,239,2.0,4.0,91,0.00,SCT,,0.00,WeatherDisplay:10.37,2014-12-29 02:20:00,
2014-12-29 02:30:00,28.8,26.5,30.62,SW,222,0.0,2.0,91,0.00,SCT,,0.00,WeatherDisplay:10.37,2014-12-29 02:30:00,
2014-12-29 02:40:00,28.6,26.3,30.62,SSW,208,0.0,2.0,91,0.00,SCT,,0.00,WeatherDisplay:10.37,2014-12-29 02:40:00,
2014-12-29 02:50:00,28.6,26.3,30.62,SW,233,1.0,2.0,91,0.00,SCT,,0.00,WeatherDisplay:10.37,2014-12-29 02:50:00,
2014-12-29 03:00:00,28.6,26.3,30.62,WSW,240,0.0,4.0,91,0.00,SCT,,0.00,WeatherDisplay:10.37,2014-12-29 03:00:00,
2014-12-29 03:10:00,28.4,26.4,30.62,SW,220,1.0,4.0,92,0.00,SCT,,0.00,WeatherDisplay:10.37,2014-12-29 03:10:00,
2014-12-29 03:20:00,28.2,26.2,30.62,South,171,0.0,0.0,92,0.00,SCT,,0.00,WeatherDisplay:10.37,2014-12-29 03:20:00,
2014-12-29 03:30:00,28.4,26.4,30.62,SW,226,3.0,6.0,92,0.00,SCT,,0.00,WeatherDisplay:10.37,2014-12-29 03:30:00,
2014-12-29 03:40:00,28.6,26.3,30.62,WSW,240,3.0,5.0,91,0.00,SCT,,0.00,WeatherDisplay:10.37,2014-12-29 03:40:00,
2014-12-29 03:50:00,28.6,26.3,30.62,SW,235,1.0,5.0,91,0.00,SCT,,0.00,WeatherDisplay:10.37,2014-12-29 03:50:00,
2014-12-29 04:00:00,28.4,26.4,30.62,SW,220,3.0,5.0,92,0.00,SCT,,0.00,WeatherDisplay:10.37,2014-12-29 04:00:00,
2014-12-29 04:10:00,28.4,26.4,30.62,SW,226,0.0,4.0,92,0.00,SCT,,0.00,WeatherDisplay:10.37,2014-12-29 04:10:00,
2014-12-29 04:20:00,28.6,26.3,30.62,WSW,255,0.0,5.0,91,0.00,SCT,,0.00,WeatherDisplay:10.37,2014-12-29 04:20:00,
2014-12-29 04:30:00,28.4,26.1,30.62,WSW,251,2.0,5.0,91,0.00,SCT,,0.00,WeatherDisplay:10.37,2014-12-29 04:30:00,
2014-12-29 04:40:00,28.4,26.1,30.62,WSW,253,3.0,5.0,91,0.00,SCT,,0.00,WeatherDisplay:10.37,2014-12-29 04:40:00,
2014-12-29 04:50:00,28.4,26.1,30.62,WSW,249,5.0,6.0,91,0.00,SCT,,0.00,WeatherDisplay:10.37,2014-12-29 04:50:00,
2014-12-29 05:00:00,28.4,26.1,30.62,WSW,240,6.0,6.0,91,0.00,SCT,,0.00,WeatherDisplay:10.37,2014-12-29 05:00:00,
2014-12-29 05:10:00,28.4,26.1,30.59,WSW,250,5.0,6.0,91,0.00,SCT,,0.00,WeatherDisplay:10.37,2014-12-29 05:10:00,
2014-12-29 05:20:00,28.4,26.1,30.59,West,269,3.0,5.0,91,0.00,SCT,,0.00,WeatherDisplay:10.37,2014-12-29 05:20:00,
2014-12-29 05:30:00,28.4,26.1,30.59,WNW,292,1.0,4.0,91,0.00,SCT,,0.00,WeatherDisplay:10.37,2014-12-29 05:30:00,
2014-12-29 05:40:00,28.4,26.1,30.59,WSW,253,2.0,4.0,91,0.00,SCT,,0.00,WeatherDisplay:10.37,2014-12-29 05:40:00,
2014-12-29 05:50:00,28.4,26.1,30.59,WSW,257,3.0,4.0,91,0.00,SCT,,0.00,WeatherDisplay:10.37,2014-12-29 05:50:00,
2014-12-29 06:00:00,28.4,26.1,30.59,SW,233,5.0,6.0,91,0.00,SCT,,0.00,WeatherDisplay:10.37,2014-12-29 06:00:00,
2014-12-29 06:10:00,28.9,26.6,30.62,SW,232,3.0,6.0,91,0.00,SCT,,0.00,WeatherDisplay:10.37,2014-12-29 06:10:00,
2014-12-29 06:20:00,29.3,27.0,30.62,West,264,3.0,6.0,91,0.00,SCT,,0.00,WeatherDisplay:10.37,2014-12-29 06:20:00,
2014-12-29 06:40:00,29.7,27.4,30.62,West,276,2.0,5.0,91,0.00,SCT,,0.00,WeatherDisplay:10.37,2014-12-29 06:40:00,
2014-12-29 06:50:00,29.7,27.6,30.62,WSW,256,5.0,5.0,92,0.00,SCT,,0.00,WeatherDisplay:10.37,2014-12-29 06:50:00,
2014-12-29 07:00:00,29.8,27.8,30.62,WSW,246,5.0,7.0,92,0.00,SCT,,0.00,WeatherDisplay:10.37,2014-12-29 07:00:00,
2014-12-29 07:10:00,29.8,27.8,30.62,West,270,6.0,6.0,92,0.00,SCT,,0.00,WeatherDisplay:10.37,2014-12-29 07:10:00,
2014-12-29 07:20:00,30.0,28.0,30.62,West,272,2.0,6.0,92,0.00,SCT,,0.00,WeatherDisplay:10.37,2014-12-29 07:20:00,
2014-12-29 07:30:00,29.8,27.8,30.62,WSW,244,0.0,5.0,92,0.00,SCT,,0.00,WeatherDisplay:10.37,2014-12-29 07:30:00,
2014-12-29 07:40:00,29.8,27.8,30.62,WSW,253,2.0,6.0,92,0.00,SCT,,0.00,WeatherDisplay:10.37,2014-12-29 07:40:00,
2014-12-29 07:50:00,29.8,27.8,30.62,West,268,1.0,7.0,92,0.00,SCT,,0.00,WeatherDisplay:10.37,2014-12-29 07:50:00,
2014-12-29 08:00:00,29.7,27.6,30.62,WSW,255,3.0,5.0,92,0.00,SCT,,0.00,WeatherDisplay:10.37,2014-12-29 08:00:00,
2014-12-29 08:10:00,29.7,27.6,30.65,West,275,3.0,6.0,92,0.00,SCT,,0.00,WeatherDisplay:10.37,2014-12-29 08:10:00,
2014-12-29 08:20:00,29.8,27.8,30.65,West,266,2.0,4.0,92,0.00,SCT,,0.00,WeatherDisplay:10.37,2014-12-29 08:20:00,
2014-12-29 08:30:00,29.8,27.8,30.65,WSW,254,3.0,6.0,92,0.00,SCT,,0.00,WeatherDisplay:10.37,2014-12-29 08:30:00,
2014-12-29 08:40:00,30.0,28.0,30.65,West,264,5.0,7.0,92,0.00,SCT,,0.00,WeatherDisplay:10.37,2014-12-29 08:40:00,
2014-12-29 08:50:00,30.2,28.2,30.65,West,272,2.0,6.0,92,0.00,SCT,,0.00,WeatherDisplay:10.37,2014-12-29 08:50:00,
2014-12-29 09:10:00,30.4,28.3,30.65,WSW,237,3.0,6.0,92,0.00,SCT,,0.00,WeatherDisplay:10.37,2014-12-29 09:10:00,
2014-12-29 09:20:00,30.6,28.5,30.65,WNW,283,6.0,6.0,92,0.00,SCT,,0.00,WeatherDisplay:10.37,2014-12-29 09:20:00,
2014-12-29 09:30:00,30.7,28.7,30.65,WSW,255,3.0,6.0,92,0.00,SCT,,0.00,WeatherDisplay:10.37,2014-12-29 09:30:00,
2014-12-29 09:40:00,31.1,29.0,30.65,WSW,248,3.0,4.0,92,0.00,SCT,,0.00,WeatherDisplay:10.37,2014-12-29 09:40:00,
2014-12-29 09:50:00,31.5,29.4,30.65,West,276,2.0,5.0,92,0.00,SCT,,0.00,WeatherDisplay:10.37,2014-12-29 09:50:00,
2014-12-29 10:00:00,31.6,29.6,30.65,West,266,3.0,4.0,92,0.00,SCT,,0.00,WeatherDisplay:10.37,2014-12-29 10:00:00,
2014-12-29 10:10:00,32.1,30.0,30.65,WSW,245,3.0,5.0,92,0.00,SCT,,0.00,WeatherDisplay:10.37,2014-12-29 10:10:00,
2014-12-29 10:20:00,32.4,30.3,30.65,WNW,298,0.0,6.0,92,0.00,SCT,,0.00,WeatherDisplay:10.37,2014-12-29 10:20:00,
2014-12-29 10:30:00,32.7,30.7,30.65,West,272,2.0,4.0,92,0.00,SCT,,0.00,WeatherDisplay:10.37,2014-12-29 10:30:00,
2014-12-29 10:40:00,32.8,30.8,30.65,WNW,285,2.0,5.0,92,0.00,SCT,,0.00,WeatherDisplay:10.37,2014-12-29 10:40:00,
2014-12-29 10:50:00,33.3,31.2,30.68,West,279,5.0,5.0,92,0.00,SCT,,0.00,WeatherDisplay:10.37,2014-12-29 10:50:00,
2014-12-29 11:00:00,33.4,31.4,30.68,West,273,2.0,5.0,92,0.00,SCT,,0.00,WeatherDisplay:10.37,2014-12-29 11:00:00,
2014-12-29 11:10:00,33.6,31.5,30.68,NW,304,0.0,3.0,92,0.00,SCT,,0.00,WeatherDisplay:10.37,2014-12-29 11:10:00,
2014-12-29 11:20:00,33.8,31.7,30.65,West,264,2.0,4.0,92,0.00,SCT,,0.00,WeatherDisplay:10.37,2014-12-29 11:20:00,
2014-12-29 11:30:00,34.0,31.6,30.65,WSW,237,0.0,6.0,91,0.00,SCT,,0.00,WeatherDisplay:10.37,2014-12-29 11:30:00,
2014-12-29 11:40:00,34.3,32.0,30.68,SW,223,3.0,5.0,91,0.00,SCT,,0.00,WeatherDisplay:10.37,2014-12-29 11:40:00,
2014-12-29 11:50:00,34.7,32.3,30.68,WSW,254,2.0,5.0,91,0.00,SCT,,0.00,WeatherDisplay:10.37,2014-12-29 11:50:00,